Latest Weather Observations for PORTABLE RFSNSW55

IDN60801

Issued at 5:22 am EDT Tuesday 22 October 2019 (issued every 10 minutes, with the page automatically refreshed every 10 minutes)

About weather observations | Map of weather stations | Latest weather observations for NSW | Other Formats
Station Details ID: 250101 Name: PORTABLE RFSNSW55 Lat: -33.67 Lon: 150.56 Height: 410.0 m
Data from the previous 72 hours. | See also: Recent months for locations in New South Wales
Date/Time
EDT
Temp
°C
App
Temp
°C
Dew
Point
°C
Rel
Hum
%
Delta-T
°C
Wind Press
QNH
hPa
Press
MSL
hPa
Rain since
9am
mm
Dir  Spd
km/h
Gust
km/h
Spd
kts
Gust
kts
22/05:10am 8.7 7.4 7.8 94 0.4 WNW 4 4 2 2 - - 0.0
22/05:00am 8.7 7.4 7.7 93 0.5 WNW 4 4 2 2 - - 0.0
22/04:50am 8.9 7.6 7.8 93 0.5 NW 4 6 2 3 - - 0.0
22/04:40am 9.4 8.6 8.1 92 0.6 NW 2 4 1 2 - - 0.0
22/04:30am 9.6 8.8 8.0 90 0.8 WNW 2 4 1 2 - - 0.0
22/04:20am 9.7 8.9 8.1 90 0.8 W 2 2 1 1 - - 0.0
22/04:10am 9.8 9.0 8.2 90 0.8 W 2 2 1 1 - - 0.0
22/04:00am 10.0 9.2 8.3 89 0.8 W 2 2 1 1 - - 0.0
22/03:50am 10.1 9.3 8.3 88 0.9 WNW 2 2 1 1 - - 0.0
22/03:40am 10.1 9.4 8.4 89 0.8 W 2 4 1 2 - - 0.0
22/03:30am 10.0 9.3 8.7 92 0.7 WNW 2 2 1 1 - - 0.0
22/03:20am 10.1 9.4 8.7 91 0.7 WNW 2 2 1 1 - - 0.0
22/03:10am 10.0 9.3 8.7 92 0.7 W 2 4 1 2 - - 0.0
22/03:00am 10.1 9.4 8.5 90 0.8 W 2 2 1 1 - - 0.0
22/02:50am 10.3 9.6 8.7 90 0.8 W 2 2 1 1 - - 0.0
22/02:40am 10.5 9.8 8.6 88 1.0 W 2 4 1 2 - - 0.0
22/02:30am 10.5 9.5 8.7 89 0.9 SW 4 6 2 3 - - 0.0
22/02:20am 10.4 9.4 8.7 89 0.9 SW 4 6 2 3 - - 0.0
22/02:10am 10.3 9.2 8.6 89 0.9 SW 4 6 2 3 - - 0.0
22/02:00am 10.2 9.1 8.3 88 0.9 SW 4 6 2 3 - - 0.0
22/01:50am 10.1 9.0 8.3 88 0.9 SW 4 4 2 2 - - 0.0
22/01:40am 10.0 8.8 8.1 88 0.9 SW 4 4 2 2 - - 0.0
22/01:30am 10.2 9.1 8.3 88 0.9 SSW 4 4 2 2 - - 0.0
22/01:20am 10.4 9.7 8.4 87 1.0 SSW 2 4 1 2 - - 0.0
22/01:10am 10.6 9.5 8.6 87 1.0 SW 4 4 2 2 - - 0.0
22/01:00am 10.7 10.0 8.4 86 1.2 SSW 2 4 1 2 - - 0.0
22/12:50am 10.8 9.7 8.6 86 1.1 SW 4 4 2 2 - - 0.0
22/12:40am 11.0 10.3 8.5 84 1.3 SSW 2 2 1 1 - - 0.0
22/12:30am 11.2 10.5 8.7 84 1.3 SSW 2 4 1 2 - - 0.0
22/12:20am 11.5 10.5 8.7 83 1.4 SW 4 4 2 2 - - 0.0
22/12:10am 11.6 10.6 8.8 83 1.4 SW 4 4 2 2 - - 0.0
22/12:00am 11.7 10.7 8.8 82 1.5 SW 4 4 2 2 - - 0.0
 
Date/Time
EDT
Temp
°C
App
Temp
°C
Dew
Point
°C
Rel
Hum
%
Delta-T
°C
Wind Press
QNH
hPa
Press
MSL
hPa
Rain since
9am
mm
Dir  Spd
km/h
Gust
km/h
Spd
kts
Gust
kts
21/11:50pm 11.7 10.7 9.0 83 1.4 SW 4 6 2 3 - - 0.0
21/11:40pm 12.2 11.6 8.9 80 1.7 S 2 2 1 1 - - 0.0
21/11:30pm 12.3 11.8 9.3 82 1.5 S 2 2 1 1 - - 0.0
21/11:20pm 12.5 11.9 9.0 79 1.8 SW 2 2 1 1 - - 0.0
21/11:10pm 12.7 12.1 9.1 79 1.9 SSW 2 2 1 1 - - 0.0
21/11:00pm 12.6 12.0 9.0 79 1.8 SW 2 4 1 2 - - 0.0
21/10:50pm 12.7 12.2 9.2 79 1.8 SSW 2 2 1 1 - - 0.0
21/10:40pm 12.8 12.3 9.2 79 1.9 SSW 2 2 1 1 - - 0.0
21/10:30pm 12.9 12.4 9.2 78 1.9 S 2 2 1 1 - - 0.0
21/10:20pm 13.1 12.6 9.2 77 2.0 S 2 2 1 1 - - 0.0
21/10:10pm 13.1 12.6 9.4 78 1.9 S 2 2 1 1 - - 0.0
21/10:00pm 13.4 13.3 9.3 76 2.1 CALM 0 2 0 1 - - 0.0
21/09:50pm 13.5 13.4 9.3 76 2.2 CALM 0 2 0 1 - - 0.0
21/09:40pm 13.8 13.7 9.4 75 2.3 CALM 0 2 0 1 - - 0.0
21/09:30pm 13.9 13.4 9.3 74 2.4 SSE 2 2 1 1 - - 0.0
21/09:20pm 14.0 13.5 9.4 74 2.4 ESE 2 2 1 1 - - 0.0
21/09:10pm 14.3 13.8 9.4 72 2.6 E 2 4 1 2 - - 0.0
21/09:00pm 14.5 13.6 9.4 71 2.7 E 4 4 2 2 - - 0.0
21/08:50pm 14.8 14.3 9.4 70 2.8 ESE 2 4 1 2 - - 0.0
21/08:40pm 14.8 13.9 9.3 69 2.9 ESE 4 4 2 2 - - 0.0
21/08:30pm 14.9 14.4 9.5 70 2.8 SSE 2 2 1 1 - - 0.0
21/08:20pm 15.3 14.8 9.5 68 3.1 SSE 2 4 1 2 - - 0.0
21/08:00pm 15.9 15.1 9.5 66 3.4 SSE 4 4 2 2 - - 0.0
21/07:50pm 16.2 15.4 9.6 65 3.5 SSE 4 4 2 2 - - 0.0
21/07:40pm 16.5 15.7 9.6 63 3.7 SSE 4 4 2 2 - - 0.0
21/07:30pm 17.0 16.1 9.4 61 4.0 SSE 4 6 2 3 - - 0.0
21/07:20pm 17.4 16.1 9.2 58 4.4 SE 6 7 3 4 - - 0.0
21/07:10pm 17.8 16.5 9.3 57 4.5 SE 6 6 3 3 - - 0.0
21/07:00pm 18.2 17.0 9.4 56 4.7 SE 6 9 3 5 - - 0.0
21/06:50pm 18.7 17.5 9.6 55 4.9 ESE 6 7 3 4 - - 0.0
21/06:40pm 19.3 18.5 9.8 54 5.2 E 4 7 2 4 - - 0.0
21/06:30pm 19.9 18.6 9.8 52 5.5 E 7 9 4 5 - - 0.0
21/06:20pm 20.7 19.4 9.8 49 6.0 ENE 7 9 4 5 - - 0.0
21/06:10pm 21.8 20.4 9.7 46 6.7 E 7 11 4 6 - - 0.0
21/06:00pm 22.9 21.5 8.9 40 7.6 ENE 6 7 3 4 - - 0.0
21/05:50pm 23.2 21.1 5.9 32 8.9 ENE 6 7 3 4 - - 0.0
21/05:40pm 23.5 21.5 6.1 32 9.1 ESE 6 9 3 5 - - 0.0
21/05:30pm 23.7 21.4 5.8 31 9.3 ESE 7 9 4 5 - - 0.0
21/05:20pm 24.4 22.4 6.3 31 9.5 E 6 7 3 4 - - 0.0
21/05:10pm 24.3 22.5 7.3 33 9.1 E 6 7 3 4 - - 0.0
21/05:00pm 24.4 22.4 6.4 31 9.5 E 6 7 3 4 - - 0.0
21/04:50pm 24.4 22.7 7.6 34 9.0 NE 6 9 3 5 - - 0.0
21/04:40pm 24.3 22.1 6.4 31 9.4 ENE 7 11 4 6 - - 0.0
21/04:30pm 24.2 22.2 6.2 31 9.4 ENE 6 9 3 5 - - 0.0
21/04:20pm 24.2 22.0 6.1 31 9.5 ENE 7 9 4 5 - - 0.0
21/04:10pm 24.5 22.4 6.7 32 9.4 ESE 7 11 4 6 - - 0.0
21/04:00pm 24.7 22.6 6.7 31 9.5 ENE 7 9 4 5 - - 0.0
21/03:50pm 25.2 23.5 7.4 32 9.6 ENE 6 13 3 7 - - 0.0
21/03:40pm 25.0 23.5 8.4 34 9.1 NE 6 9 3 5 - - 0.0
21/03:30pm 24.8 22.9 6.9 31 9.5 NE 6 11 3 6 - - 0.0
21/03:20pm 24.5 22.6 6.8 32 9.4 ENE 6 13 3 7 - - 0.0
21/03:10pm 24.5 22.6 7.5 33 9.1 ENE 7 11 4 6 - - 0.0
21/03:00pm 24.3 22.2 6.6 32 9.3 ENE 7 9 4 5 - - 0.0
21/02:50pm 24.0 21.9 6.8 33 9.1 ESE 7 13 4 7 - - 0.0
21/02:40pm 24.2 22.3 7.4 34 9.0 ENE 7 11 4 6 - - 0.0
21/02:30pm 24.5 22.6 7.7 34 9.0 NNE 7 9 4 5 - - 0.0
21/02:20pm 24.3 22.6 8.4 36 8.7 ENE 7 9 4 5 - - 0.0
21/02:10pm 23.8 22.3 8.6 38 8.3 ENE 6 9 3 5 - - 0.0
21/02:00pm 24.5 22.8 7.7 34 9.0 ENE 6 7 3 4 - - 0.0
21/01:50pm 24.3 22.7 8.6 36 8.6 ENE 7 11 4 6 - - 0.0
21/01:40pm 24.6 22.6 7.2 32 9.3 NNE 7 9 4 5 - - 0.0
21/01:30pm 24.5 23.4 8.6 36 8.7 E 4 6 2 3 - - 0.0
21/01:20pm 23.3 21.6 8.2 38 8.1 E 7 13 4 7 - - 0.0
21/01:10pm 23.5 22.1 9.0 39 7.9 ENE 6 9 3 5 - - 0.0
21/01:00pm 23.4 21.5 7.6 36 8.4 ENE 7 9 4 5 - - 0.0
21/12:50pm 23.1 21.2 7.6 37 8.3 NE 7 11 4 6 - - 0.0
21/12:40pm 23.2 21.6 7.8 37 8.2 NNE 6 9 3 5 - - 0.0
21/12:30pm 23.0 21.6 8.8 40 7.7 E 6 9 3 5 - - 0.0
21/12:20pm 22.3 21.1 9.6 44 7.0 E 6 9 3 5 - - 0.0
21/12:10pm 22.3 21.0 9.1 43 7.2 E 6 7 3 4 - - 0.0
21/12:00pm 21.9 20.4 8.3 41 7.3 ESE 6 11 3 6 - - 0.0
21/11:50am 22.5 21.5 8.9 42 7.4 N 4 7 2 4 - - 0.0
21/11:40am 22.3 21.1 9.4 43 7.1 ENE 6 6 3 3 - - 0.0
21/11:30am 22.6 21.1 8.3 40 7.7 NE 6 7 3 4 - - 0.0
21/11:20am 21.8 20.2 8.2 41 7.3 ENE 6 7 3 4 - - 0.0
21/11:10am 21.8 20.6 8.2 41 7.3 NE 4 6 2 3 - - 0.0
21/11:00am 20.7 19.6 8.6 45 6.5 SE 4 6 2 3 - - 0.0
21/10:50am 20.0 19.1 9.2 49 5.8 E 4 6 2 3 - - 0.0
21/10:40am 20.2 18.6 7.8 44 6.5 N 6 7 3 4 - - 0.0
21/10:30am 19.9 18.3 7.9 46 6.3 NE 6 6 3 3 - - 0.0
21/10:20am 18.9 17.5 9.0 52 5.3 W 6 9 3 5 - - 0.0
21/10:10am 19.4 18.3 8.6 49 5.7 N 4 6 2 3 - - 0.0
21/10:00am 19.2 18.1 8.4 49 5.7 N 4 6 2 3 - - 0.0
21/09:50am 19.0 17.4 7.8 48 5.9 N 6 7 3 4 - - 0.0
21/09:40am 19.1 17.8 9.3 53 5.3 N 6 7 3 4 - - 0.0
21/09:30am 18.7 17.3 8.8 52 5.3 N 6 7 3 4 - - 0.0
21/09:20am 18.4 17.0 8.9 54 5.0 N 6 7 3 4 - - 0.0
21/09:10am 17.9 16.5 9.0 56 4.7 N 6 7 3 4 - - 0.0
21/09:00am 17.7 16.7 8.8 56 4.7 N 4 6 2 3 - - 0.0
21/08:50am 17.0 15.4 7.9 55 4.7 NW 6 9 3 5 - - 0.0
21/08:40am 16.8 15.7 8.6 58 4.3 N 4 7 2 4 - - 0.0
21/08:30am 15.7 14.7 8.8 63 3.6 WNW 4 9 2 5 - - 0.0
21/08:20am 15.3 13.7 8.0 61 3.7 WNW 6 7 3 4 - - 0.0
21/08:10am 15.1 13.5 7.9 62 3.7 NW 6 7 3 4 - - 0.0
21/08:00am 14.6 13.0 7.9 64 3.4 WNW 6 7 3 4 - - 0.0
21/07:50am 14.1 12.9 7.9 66 3.1 WNW 4 6 2 3 - - 0.0
21/07:40am 13.5 12.2 7.6 67 3.0 WNW 4 4 2 2 - - 0.0
21/07:30am 12.7 11.3 7.3 69 2.7 WNW 4 4 2 2 - - 0.0
21/07:20am 11.7 10.7 7.5 75 2.1 WSW 2 2 1 1 - - 0.0
21/07:10am 10.6 9.4 6.6 76 1.9 SW 2 2 1 1 - - 0.0
21/07:00am 9.6 8.3 6.0 78 1.7 W 2 2 1 1 - - 0.0
21/06:50am 8.6 7.3 5.8 82 1.3 W 2 4 1 2 - - 0.0
21/06:40am 8.0 6.6 5.5 84 1.1 W 2 2 1 1 - - 0.0
21/06:30am 7.9 6.5 5.5 85 1.1 W 2 2 1 1 - - 0.0
21/06:20am 7.8 6.0 5.5 85 1.1 SW 4 4 2 2 - - 0.0
21/06:10am 7.6 5.8 5.5 86 1.0 SW 4 6 2 3 - - 0.0
21/06:00am 7.4 5.6 5.5 88 0.9 SSW 4 4 2 2 - - 0.0
21/05:50am 7.4 6.0 5.4 87 0.9 W 2 4 1 2 - - 0.0
21/05:40am 7.5 6.1 5.4 86 1.0 W 2 4 1 2 - - 0.0
21/05:30am 7.5 6.1 5.5 87 0.9 WNW 2 2 1 1 - - 0.0
21/05:20am 7.5 6.1 5.4 86 1.0 W 2 2 1 1 - - 0.0
21/05:10am 7.7 6.3 5.4 85 1.1 WNW 2 2 1 1 - - 0.0
21/05:00am 7.6 6.2 5.4 86 1.0 WSW 2 2 1 1 - - 0.0
21/04:50am 7.7 6.2 5.2 84 1.1 SW 2 2 1 1 - - 0.0
21/04:40am 7.9 6.5 5.5 85 1.1 SW 2 2 1 1 - - 0.0
21/04:30am 8.2 6.8 5.6 84 1.2 WSW 2 4 1 2 - - 0.0
21/04:20am 8.3 6.5 5.6 83 1.2 WSW 4 4 2 2 - - 0.0
21/04:10am 8.5 6.7 5.4 81 1.4 WSW 4 4 2 2 - - 0.0
21/04:00am 8.4 6.6 5.5 82 1.3 WSW 4 4 2 2 - - 0.0
21/03:50am 8.5 6.7 5.5 81 1.4 WSW 4 4 2 2 - - 0.0
21/03:40am 8.5 6.7 5.4 81 1.4 SW 4 4 2 2 - - 0.0
21/03:30am 8.6 6.8 5.4 80 1.5 SW 4 4 2 2 - - 0.0
21/03:20am 8.6 6.8 5.4 80 1.5 WSW 4 4 2 2 - - 0.0
21/03:10am 8.5 6.7 5.3 80 1.5 WSW 4 4 2 2 - - 0.0
21/03:00am 8.4 6.6 5.2 80 1.5 SW 4 4 2 2 - - 0.0
21/02:50am 8.1 6.3 5.3 82 1.3 SW 4 6 2 3 - - 0.0
21/02:40am 8.3 6.4 5.1 80 1.5 SW 4 4 2 2 - - 0.0
21/02:30am 8.6 6.8 5.3 80 1.5 WSW 4 4 2 2 - - 0.0
21/02:20am 8.8 7.0 5.3 79 1.6 WSW 4 4 2 2 - - 0.0
21/02:10am 9.1 7.3 5.2 76 1.8 WSW 4 4 2 2 - - 0.0
21/02:00am 9.2 7.8 5.3 76 1.8 WSW 2 4 1 2 - - 0.0
21/01:50am 9.1 7.3 5.2 76 1.8 SW 4 4 2 2 - - 0.0
21/01:40am 9.1 7.3 5.2 76 1.8 SW 4 6 2 3 - - 0.0
21/01:30am 9.2 7.4 5.2 76 1.8 SW 4 4 2 2 - - 0.0
21/01:20am 9.3 7.4 5.1 75 1.9 SW 4 6 2 3 - - 0.0
21/01:10am 9.2 7.3 5.1 75 1.9 SW 4 4 2 2 - - 0.0
21/01:00am 9.5 8.0 5.1 74 2.0 SW 2 4 1 2 - - 0.0
21/12:50am 9.5 7.6 5.1 74 2.0 SW 4 4 2 2 - - 0.0
21/12:40am 9.4 7.9 5.2 75 1.9 SW 2 4 1 2 - - 0.0
21/12:30am 9.7 8.2 5.0 72 2.2 SW 2 2 1 1 - - 0.0
21/12:20am 9.8 8.3 5.0 72 2.2 SW 2 4 1 2 - - 0.0
21/12:10am 9.8 8.3 5.0 72 2.2 SW 2 4 1 2 - - 0.0
21/12:00am 10.0 8.1 5.0 71 2.3 SW 4 4 2 2 - - 0.0
 
Date/Time
EDT
Temp
°C
App
Temp
°C
Dew
Point
°C
Rel
Hum
%
Delta-T
°C
Wind Press
QNH
hPa
Press
MSL
hPa
Rain since
9am
mm
Dir  Spd
km/h
Gust
km/h
Spd
kts
Gust
kts
20/11:50pm 9.9 8.4 4.8 70 2.3 SW 2 2 1 1 - - 0.0
20/11:40pm 9.7 8.2 4.8 71 2.2 SSW 2 2 1 1 - - 0.0
20/11:30pm 9.7 8.2 4.9 72 2.2 SSW 2 2 1 1 - - 0.0
20/11:20pm 10.1 8.6 4.9 70 2.4 SSW 2 2 1 1 - - 0.0
20/11:10pm 10.3 8.8 4.8 69 2.5 SSW 2 2 1 1 - - 0.0
20/11:00pm 10.2 8.7 4.8 69 2.5 SSW 2 2 1 1 - - 0.0
20/10:50pm 9.9 8.4 4.8 70 2.3 SSW 2 2 1 1 - - 0.0
20/10:40pm 10.0 8.5 4.8 70 2.4 SSW 2 2 1 1 - - 0.0
20/10:30pm 10.4 8.8 4.7 68 2.6 S 2 2 1 1 - - 0.0
20/10:20pm 10.4 8.8 4.6 67 2.7 SSW 2 2 1 1 - - 0.0
20/10:10pm 10.5 8.9 4.6 67 2.7 SSW 2 2 1 1 - - 0.0
20/10:00pm 10.8 9.2 4.6 65 2.9 SSW 2 2 1 1 - - 0.0
20/09:50pm 11.0 9.4 4.6 64 3.0 SSW 2 2 1 1 - - 0.0
20/09:40pm 11.4 9.8 4.5 62 3.2 SSW 2 2 1 1 - - 0.0
20/09:30pm 11.3 9.7 4.4 62 3.2 S 2 2 1 1 - - 0.0
20/09:20pm 11.5 9.9 4.4 61 3.3 S 2 2 1 1 - - 0.0
20/09:10pm 11.6 10.0 4.3 61 3.4 S 2 2 1 1 - - 0.0
20/09:00pm 11.7 10.1 4.4 61 3.4 SSE 2 2 1 1 - - 0.0
20/08:50pm 11.7 10.1 4.4 61 3.4 S 2 4 1 2 - - 0.0
20/08:40pm 11.9 10.3 4.4 60 3.5 S 2 4 1 2 - - 0.0
20/08:30pm 12.1 10.5 4.3 59 3.6 S 2 4 1 2 - - 0.0
20/08:20pm 12.4 10.8 4.3 57 3.8 S 2 4 1 2 - - 0.0
20/08:10pm 12.7 10.7 4.3 56 3.9 SSE 4 4 2 2 - - 0.0
20/08:00pm 12.9 10.9 4.3 56 4.0 S 4 4 2 2 - - 0.0
20/07:50pm 13.4 11.8 4.4 54 4.2 SSE 2 4 1 2 - - 0.0
20/07:40pm 13.9 11.9 4.2 52 4.5 SE 4 6 2 3 - - 0.0
20/07:30pm 14.2 11.8 4.3 51 4.7 SE 6 6 3 3 - - 0.0
20/07:20pm 14.6 12.6 4.2 49 4.9 SE 4 7 2 4 - - 0.0
20/07:00pm 15.3 12.9 4.2 47 5.3 SE 6 9 3 5 - - 0.0
20/06:50pm 15.7 13.3 4.2 46 5.5 SE 6 9 3 5 - - 0.0
20/06:40pm 16.1 13.5 4.0 44 5.7 SE 7 9 4 5 - - 0.0
20/06:30pm 16.6 14.0 4.3 44 5.9 SE 7 11 4 6 - - 0.0
20/06:20pm 17.3 14.8 4.5 42 6.2 SE 7 11 4 6 - - 0.0
20/06:10pm 18.4 15.5 4.4 39 6.8 SSE 9 11 5 6 - - 0.0
20/06:00pm 20.0 17.0 4.0 34 7.8 SE 9 13 5 7 - - 0.0
20/05:50pm 21.4 18.6 -0.2 23 9.8 ENE 4 6 2 3 - - 0.0
20/05:40pm 21.8 18.8 0.9 25 9.7 NE 6 7 3 4 - - 0.0
20/05:30pm 22.3 19.5 -0.4 22 10.4 NNE 4 6 2 3 - - 0.0
20/05:20pm 22.4 19.4 0.5 23 10.2 NE 6 7 3 4 - - 0.0
20/05:10pm 22.6 19.4 -0.6 21 10.6 NNE 6 9 3 5 - - 0.0
20/05:00pm 22.6 19.6 0.5 23 10.3 NE 6 7 3 4 - - 0.0
20/04:50pm 22.9 20.0 1.3 24 10.2 NE 6 7 3 4 - - 0.0
20/04:40pm 23.2 20.3 1.5 24 10.3 NE 6 6 3 3 - - 0.0
20/04:30pm 22.9 20.0 -1.0 20 10.8 NNE 4 7 2 4 - - 0.0
20/04:20pm 22.7 19.8 1.4 24 10.1 ENE 6 7 3 4 - - 0.0
20/04:10pm 22.5 19.2 -0.2 22 10.4 ESE 7 13 4 7 - - 0.0
20/04:00pm 23.2 20.1 0.0 21 10.7 NE 6 9 3 5 - - 0.0
20/03:50pm 22.8 19.6 -0.6 21 10.7 NE 6 11 3 6 - - 0.0
20/03:40pm 22.8 19.6 -0.8 21 10.7 ENE 6 13 3 7 - - 0.0
20/03:30pm 23.2 20.5 0.0 21 10.7 NNE 4 7 2 4 - - 0.0
20/03:20pm 23.0 19.9 0.3 22 10.6 ENE 6 7 3 4 - - 0.0
20/03:10pm 23.2 20.0 -0.6 20 10.9 NE 6 9 3 5 - - 0.0
20/03:00pm 22.6 19.3 -1.3 20 10.8 NE 6 7 3 4 - - 0.0
20/02:50pm 22.7 19.3 -0.9 20 10.7 NE 7 9 4 5 - - 0.0
20/02:40pm 22.6 19.6 0.6 23 10.3 NNE 6 9 3 5 - - 0.0
20/02:30pm 22.4 19.5 1.6 25 9.9 NNE 6 7 3 4 - - 0.0
20/02:20pm 22.4 19.2 -0.6 21 10.5 NE 6 9 3 5 - - 0.0
20/02:10pm 22.6 19.2 -2.4 18 11.0 NNE 6 9 3 5 - - 0.0
20/02:00pm 22.4 18.9 -1.0 21 10.6 N 7 9 4 5 - - 0.0
20/01:50pm 22.5 19.5 2.3 26 9.7 N 7 9 4 5 - - 0.0
20/01:40pm 22.3 18.9 -2.0 19 10.8 NNW 6 7 3 4 - - 0.0
20/01:30pm 21.3 18.2 0.4 25 9.6 WNW 6 7 3 4 - - 0.0
20/01:20pm 21.1 17.6 -2.9 20 10.3 S 6 7 3 4 - - 0.0
20/01:10pm 20.8 17.6 -0.5 24 9.6 NE 6 7 3 4 - - 0.0
20/01:00pm 20.7 17.2 -3.1 20 10.2 NNW 6 9 3 5 - - 0.0
20/12:50pm 20.8 17.5 -0.9 23 9.7 N 6 11 3 6 - - 0.0
20/12:40pm 20.5 17.2 -1.5 22 9.7 N 6 7 3 4 - - 0.0
20/12:30pm 20.8 17.1 -2.6 20 10.1 E 7 11 4 6 - - 0.0
20/12:20pm 20.4 17.0 -1.7 22 9.7 S 6 9 3 5 - - 0.0
20/12:10pm 20.0 16.4 -2.3 22 9.6 S 7 9 4 5 - - 0.0
20/12:00pm 20.9 17.7 -0.2 24 9.6 SE 6 7 3 4 - - 0.0
20/11:50am 20.5 17.7 -0.7 24 9.5 S 4 6 2 3 - - 0.0
20/11:40am 20.3 17.2 -2.3 21 9.8 SSE 4 6 2 3 - - 0.0
20/11:30am 20.1 16.8 -0.9 24 9.3 S 6 6 3 3 - - 0.0
20/11:20am 19.2 16.3 -0.8 26 8.8 SE 4 6 2 3 - - 0.0
20/11:10am 19.4 16.5 -1.0 25 9.0 SW 4 6 2 3 - - 0.0
20/11:00am 19.4 16.6 -0.2 26 8.8 S 4 6 2 3 - - 0.0
20/10:50am 19.2 16.3 -1.2 25 8.9 ESE 4 7 2 4 - - 0.0
20/10:40am 19.0 15.6 -2.4 23 9.1 SW 6 7 3 4 - - 0.0
20/10:30am 18.5 15.7 -0.3 28 8.3 W 4 7 2 4 - - 0.0
20/10:20am 19.1 16.2 -1.3 25 8.9 S 4 6 2 3 - - 0.0
20/10:10am 19.0 16.2 -0.6 26 8.7 SSE 4 6 2 3 - - 0.0
20/10:00am 18.9 16.0 -0.9 26 8.7 S 4 4 2 2 - - 0.0
20/09:50am 18.3 15.5 -0.4 28 8.3 S 4 6 2 3 - - 0.0
20/09:40am 18.4 15.5 -0.8 27 8.4 S 4 6 2 3 - - 0.0
20/09:30am 17.6 14.7 -0.8 28 8.0 S 4 6 2 3 - - 0.0
20/09:20am 17.1 14.0 0.2 32 7.5 S 6 7 3 4 - - 0.0
20/09:00am 16.8 13.7 0.2 32 7.3 S 6 7 3 4 - - 0.0
20/08:50am 16.7 13.6 0.1 32 7.3 S 6 7 3 4 - - 0.0
20/08:40am 16.1 13.5 1.1 36 6.7 SSW 4 4 2 2 - - 0.0
20/08:30am 15.4 12.8 1.0 37 6.4 SW 4 6 2 3 - - 0.0
20/08:20am 14.8 12.5 0.6 38 6.2 W 2 4 1 2 - - 0.0
20/08:10am 14.0 11.5 1.4 42 5.6 N 4 4 2 2 - - 0.0
20/08:00am 12.8 10.5 2.7 50 4.5 WNW 4 6 2 3 - - 0.0
20/07:50am 12.0 9.6 2.0 50 4.4 N 4 6 2 3 - - 0.0
20/07:40am 11.5 8.9 1.2 49 4.4 NNW 4 6 2 3 - - 0.0
20/07:30am 10.8 7.8 0.5 49 4.3 NNW 6 6 3 3 - - 0.0
20/07:20am 10.2 7.6 0.7 51 4.0 N 4 6 2 3 - - 0.0
20/07:10am 9.4 6.6 -0.1 51 3.9 N 4 6 2 3 - - 0.0
20/07:00am 8.5 6.1 -0.6 53 3.6 WNW 2 2 1 1 - - 0.0
20/06:50am 7.6 5.1 -0.8 55 3.3 WSW 2 2 1 1 - - 0.0
20/06:40am 7.3 4.8 -0.9 56 3.2 SW 2 4 1 2 - - 0.0
20/06:30am 7.3 4.8 -0.9 56 3.2 W 2 6 1 3 - - 0.0
20/06:20am 7.5 5.0 -0.9 55 3.3 WSW 2 4 1 2 - - 0.0
20/06:10am 7.6 4.7 -1.3 53 3.5 SW 4 4 2 2 - - 0.0
20/06:00am 7.4 4.5 -1.1 55 3.3 SW 4 4 2 2 - - 0.0
20/05:50am 7.3 4.5 -0.5 57 3.1 SW 4 4 2 2 - - 0.0
20/05:40am 7.5 4.6 -0.8 55 3.3 WSW 4 6 2 3 - - 0.0
20/05:30am 7.5 4.7 -0.4 57 3.1 W 4 6 2 3 - - 0.0
20/05:20am 7.6 4.8 -0.2 58 3.1 SW 4 6 2 3 - - 0.0
20/05:10am 7.8 5.0 -0.5 56 3.3 WSW 4 7 2 4 - - 0.0
20/05:00am 7.6 4.8 -0.1 58 3.1 W 4 6 2 3 - - 0.0
20/04:50am 7.7 4.9 -0.3 57 3.2 WSW 4 6 2 3 - - 0.0
20/04:40am 7.7 5.0 0.0 58 3.1 SW 4 4 2 2 - - 0.0
20/04:30am 7.8 5.1 0.0 58 3.1 SSW 4 6 2 3 - - 0.0
20/04:20am 7.8 5.1 0.0 58 3.1 SW 4 6 2 3 - - 0.0
20/04:10am 8.2 5.5 0.2 57 3.3 SW 4 6 2 3 - - 0.0
20/04:00am 8.7 6.4 0.3 55 3.4 SW 2 4 1 2 - - 0.0
20/03:50am 8.8 6.4 -0.5 52 3.7 SSW 2 4 1 2 - - 0.0
20/03:40am 9.3 6.9 -0.4 50 3.9 WSW 2 4 1 2 - - 0.0
20/03:30am 9.0 6.2 -0.6 51 3.9 SW 4 4 2 2 - - 0.0
20/03:20am 9.1 6.7 -0.3 52 3.8 SSW 2 4 1 2 - - 0.0
20/03:10am 9.3 6.9 -0.5 50 4.0 SSW 2 2 1 1 - - 0.0
20/03:00am 9.0 6.3 0.0 53 3.7 S 4 6 2 3 - - 0.0
20/02:50am 9.9 7.6 0.7 53 3.8 S 2 6 1 3 - - 0.0
20/02:40am 10.0 7.7 0.1 50 4.1 S 2 4 1 2 - - 0.0
20/02:30am 10.1 7.7 -0.6 47 4.4 SSE 2 2 1 1 - - 0.0
20/02:20am 9.9 7.4 -1.1 46 4.4 ESE 2 2 1 1 - - 0.0
20/02:10am 9.6 7.2 -0.4 49 4.1 E 2 4 1 2 - - 0.0
20/02:00am 9.8 7.1 0.3 51 3.9 SSE 4 6 2 3 - - 0.0
20/01:50am 10.6 8.3 0.6 50 4.2 S 2 4 1 2 - - 0.0
20/01:40am 11.0 8.6 -0.3 45 4.7 S 2 2 1 1 - - 0.0
20/01:30am 10.8 8.3 -1.0 44 4.8 S 2 2 1 1 - - 0.0
20/01:20am 10.5 7.8 0.1 48 4.3 S 4 6 2 3 - - 0.0
20/01:10am 10.7 8.3 -0.1 47 4.5 S 2 4 1 2 - - 0.0
20/01:00am 10.8 8.4 -0.4 46 4.6 S 2 4 1 2 - - 0.0
20/12:50am 10.9 8.5 -0.4 45 4.7 S 2 4 1 2 - - 0.0
20/12:40am 11.0 8.2 -0.4 45 4.7 S 4 6 2 3 - - 0.0
20/12:30am 11.0 8.2 -0.1 46 4.6 S 4 6 2 3 - - 0.0
20/12:20am 11.3 8.9 -0.5 44 4.9 S 2 4 1 2 - - 0.0
20/12:10am 11.4 8.6 -0.7 43 5.0 S 4 6 2 3 - - 0.0
20/12:00am 11.4 8.6 -0.5 44 4.9 S 4 6 2 3 - - 0.0
 
Date/Time
EDT
Temp
°C
App
Temp
°C
Dew
Point
°C
Rel
Hum
%
Delta-T
°C
Wind Press
QNH
hPa
Press
MSL
hPa
Rain since
9am
mm
Dir  Spd
km/h
Gust
km/h
Spd
kts
Gust
kts
19/11:50pm 11.6 8.8 -0.3 44 4.9 S 4 6 2 3 - - 0.0
19/11:40pm 12.0 9.2 -0.3 42 5.1 S 4 6 2 3 - - 0.0
19/11:30pm 12.3 9.5 -0.5 41 5.3 S 4 4 2 2 - - 0.0
19/11:20pm 12.4 9.6 -0.5 41 5.4 SSW 4 6 2 3 - - 0.0
19/11:10pm 12.7 9.9 -0.6 40 5.6 S 4 6 2 3 - - 0.0
19/11:00pm 12.8 9.6 -0.2 41 5.5 SSE 6 6 3 3 - - 0.0
19/10:50pm 12.8 9.7 0.0 41 5.4 S 6 7 3 4 - - 0.0
19/10:40pm 12.9 9.8 0.2 41 5.4 S 6 6 3 3 - - 0.0
19/10:30pm 13.2 10.1 0.4 41 5.5 SSE 6 6 3 3 - - 0.0
19/10:20pm 13.7 10.6 0.3 40 5.8 SSE 6 6 3 3 - - 0.0
19/10:10pm 14.1 11.3 -0.2 37 6.1 SSE 4 6 2 3 - - 0.0
19/10:00pm 14.3 11.9 0.0 37 6.1 S 2 4 1 2 - - 0.0
19/09:50pm 14.7 12.0 0.0 36 6.3 S 4 9 2 5 - - 0.0
19/09:40pm 14.8 11.6 -0.2 36 6.4 S 6 7 3 4 - - 0.0
19/09:30pm 15.0 12.0 0.6 37 6.3 S 6 7 3 4 - - 0.0
19/09:20pm 15.1 12.1 1.0 38 6.2 S 6 7 3 4 - - 0.0
19/09:00pm 15.9 13.0 1.6 38 6.4 SSW 6 9 3 5 - - 0.0
19/08:50pm 16.1 13.0 1.4 37 6.6 SSW 7 11 4 6 - - 0.0
19/08:40pm 16.1 13.4 2.4 39 6.3 S 6 7 3 4 - - 0.0
19/08:30pm 16.5 13.8 2.7 39 6.4 S 6 9 3 5 - - 0.0
19/08:20pm 16.4 14.1 3.0 40 6.2 SSW 4 9 2 5 - - 0.0
19/08:10pm 16.9 14.6 2.9 39 6.5 SW 4 9 2 5 - - 0.0
19/08:00pm 17.1 14.5 3.0 39 6.6 WSW 6 11 3 6 - - 0.0
19/07:50pm 17.1 14.5 3.1 39 6.6 WSW 6 11 3 6 - - 0.0
19/07:40pm 17.2 15.1 3.7 40 6.4 SSW 4 7 2 4 - - 0.0
19/07:30pm 17.4 15.4 4.2 41 6.4 SW 4 6 2 3 - - 0.0
19/07:20pm 17.5 15.5 4.4 42 6.3 SSW 4 9 2 5 - - 0.0
19/07:10pm 17.8 15.8 4.5 41 6.5 S 4 11 2 6 - - 0.0
19/07:00pm 18.3 16.0 4.8 41 6.6 S 6 9 3 5 - - 0.0
19/06:50pm 18.4 16.1 4.8 40 6.7 SSW 6 7 3 4 - - 0.0
19/06:40pm 18.6 16.3 4.7 40 6.8 SSW 6 9 3 5 - - 0.0
19/06:30pm 18.8 15.8 4.3 38 7.1 SW 9 11 5 6 - - 0.0
19/06:20pm 19.1 16.1 3.9 36 7.4 SW 9 13 5 7 - - 0.0
19/06:10pm 19.5 16.8 3.5 34 7.7 SW 7 11 4 6 - - 0.0
19/06:00pm 20.4 16.8 2.7 31 8.5 W 11 19 6 10 - - 0.0
19/05:50pm 20.7 17.5 3.0 31 8.5 WSW 9 15 5 8 - - 0.0
19/05:40pm 20.9 17.7 2.8 30 8.7 SW 9 13 5 7 - - 0.0
19/05:30pm 20.7 16.7 2.6 30 8.6 SSW 13 19 7 10 - - 0.0
19/05:20pm 20.3 16.0 1.3 28 8.8 WSW 13 19 7 10 - - 0.0
19/05:10pm 20.8 15.2 0.2 25 9.4 W 19 22 10 12 - - 0.0
19/05:00pm 21.7 16.6 0.5 24 9.8 W 17 22 9 12 - - 0.0
19/04:50pm 21.8 16.7 1.0 25 9.7 W 17 32 9 17 - - 0.0
19/04:40pm 21.9 18.1 1.5 26 9.6 WSW 11 17 6 9 - - 0.0
19/04:30pm 21.7 17.2 2.3 27 9.3 SW 15 20 8 11 - - 0.0
19/04:20pm 22.6 18.4 1.5 25 10.0 WSW 13 26 7 14 - - 0.0
19/04:10pm 23.7 18.3 1.0 22 10.8 WSW 19 30 10 16 - - 0.0
19/04:00pm 25.7 20.8 -0.4 18 12.2 WSW 15 22 8 12 - - 0.0
19/03:50pm 25.9 21.4 -0.5 17 12.4 WSW 13 19 7 10 - - 0.0
19/03:40pm 26.3 21.9 0.3 18 12.4 W 13 17 7 9 - - 0.0
19/03:30pm 26.2 21.2 -1.4 16 12.8 WNW 15 20 8 11 - - 0.0
19/03:20pm 26.3 21.3 -1.1 16 12.7 W 15 20 8 11 - - 0.0
19/03:10pm 26.4 20.8 -2.5 15 13.1 W 17 28 9 15 - - 0.0
19/03:00pm 26.5 21.5 -1.4 16 12.9 W 15 24 8 13 - - 0.0
19/02:50pm 26.5 21.8 -1.5 16 12.9 W 13 15 7 8 - - 0.0
19/02:40pm 26.2 21.4 0.3 18 12.3 W 15 20 8 11 - - 0.0
19/02:30pm 25.8 20.0 -1.3 16 12.5 W 19 28 10 15 - - 0.0
19/02:20pm 25.8 20.0 -1.3 16 12.5 W 19 24 10 13 - - 0.0
19/02:10pm 26.1 20.6 0.4 18 12.3 W 19 24 10 13 - - 0.0
19/02:00pm 26.4 22.1 0.9 19 12.3 WSW 13 17 7 9 - - 0.0
19/01:50pm 25.9 21.4 -0.4 18 12.3 W 13 24 7 13 - - 0.0
19/01:40pm 26.4 22.1 -1.3 16 12.8 W 11 17 6 9 - - 0.0
19/01:30pm 25.9 20.8 -1.9 16 12.7 W 15 22 8 12 - - 0.0
19/01:20pm 26.5 21.9 1.3 19 12.3 W 15 22 8 12 - - 0.0
19/01:10pm 26.0 21.2 0.4 18 12.2 WNW 15 17 8 9 - - 0.0
19/01:00pm 25.9 20.7 0.2 18 12.2 W 17 22 9 12 - - 0.0
19/12:50pm 25.6 21.5 -0.4 18 12.2 WSW 11 15 6 8 - - 0.0
19/12:40pm 25.2 20.9 1.3 21 11.5 W 13 19 7 10 - - 0.0
19/12:30pm 25.5 21.2 1.3 20 11.7 W 13 17 7 9 - - 0.0
19/12:20pm 24.9 20.4 -0.5 18 11.8 W 13 24 7 13 - - 0.0
19/12:10pm 25.9 22.8 1.2 20 11.9 W 7 11 4 6 - - 0.0
19/12:00pm 24.7 21.6 1.3 21 11.2 W 7 13 4 7 - - 0.0
19/11:50am 25.3 21.4 1.0 20 11.7 W 11 17 6 9 - - 0.0
19/11:40am 25.1 22.1 3.9 25 10.7 W 9 17 5 9 - - 0.0
19/11:30am 24.7 20.8 0.9 21 11.3 WSW 11 20 6 11 - - 0.0
19/11:20am 24.8 21.7 3.8 25 10.6 WSW 9 13 5 7 - - 0.0
19/11:10am 24.5 21.3 2.9 24 10.7 W 9 13 5 7 - - 0.0
19/11:00am 23.8 19.4 0.1 21 11.1 WNW 13 19 7 10 - - 0.0
19/10:50am 23.4 19.1 1.1 23 10.6 W 13 22 7 12 - - 0.0
19/10:40am 23.6 20.2 2.0 24 10.4 WSW 9 13 5 7 - - 0.0
19/10:30am 23.7 20.9 2.9 25 10.2 WSW 7 13 4 7 - - 0.0
19/10:20am 23.2 20.0 0.7 22 10.6 W 7 9 4 5 - - 0.0
19/10:10am 22.5 19.2 -0.1 22 10.4 WNW 7 11 4 6 - - 0.0
19/10:00am 22.2 19.0 0.9 24 10.0 WNW 7 11 4 6 - - 0.0
19/09:50am 21.9 18.8 1.4 25 9.7 WNW 7 11 4 6 - - 0.0
19/09:40am 21.3 18.0 -0.2 24 9.8 W 7 11 4 6 - - 0.0
19/09:30am 21.0 17.1 -1.3 22 9.9 WNW 9 13 5 7 - - 0.0
19/09:20am 21.0 17.6 -0.9 23 9.8 W 7 11 4 6 - - 0.0
19/09:10am 20.6 16.8 -0.9 23 9.6 WNW 9 11 5 6 - - 0.0
19/09:00am 20.5 16.9 -2.1 21 9.8 W 7 11 4 6 - - 0.0
19/08:50am 20.1 16.8 -0.2 25 9.1 WNW 7 9 4 5 - - 0.0
19/08:40am 19.7 16.2 -3.1 21 9.7 W 6 7 3 4 - - 0.0
19/08:30am 19.2 15.2 -2.3 23 9.2 WNW 9 15 5 8 - - 0.0
19/08:20am 19.1 15.3 -3.4 21 9.4 WNW 7 11 4 6 - - 0.0
19/08:00am 18.6 14.6 -5.2 19 9.5 W 7 9 4 5 - - 0.0
19/07:50am 18.3 14.6 -4.3 21 9.2 W 6 7 3 4 - - 0.0
19/07:40am 17.9 14.3 -3.6 23 8.9 W 6 9 3 5 - - 0.0
19/07:30am 17.4 13.6 -5.1 21 8.9 W 6 9 3 5 - - 0.0
19/07:20am 16.4 12.6 -5.2 22 8.5 W 6 9 3 5 - - 0.0
19/07:10am 15.1 11.4 -4.8 25 7.8 WNW 6 7 3 4 - - 0.0
19/07:00am 14.5 11.3 -3.7 28 7.2 WNW 4 6 2 3 - - 0.0
19/06:50am 13.7 10.3 -5.5 26 7.3 WSW 4 6 2 3 - - 0.0
19/06:40am 13.0 9.5 -6.1 26 7.1 WSW 4 7 2 4 - - 0.0
19/06:30am 12.8 9.3 -5.8 27 6.9 WSW 4 6 2 3 - - 0.0
19/06:20am 12.5 9.1 -5.5 28 6.7 SSW 4 4 2 2 - - 0.0
19/06:10am 12.9 9.4 -6.6 25 7.1 WNW 4 6 2 3 - - 0.0
19/06:00am 13.5 10.1 -5.6 26 7.2 NW 4 7 2 4 - - 0.0
19/05:50am 13.6 9.7 -7.0 23 7.5 WNW 6 6 3 3 - - 0.0
19/05:40am 13.8 9.9 -7.0 23 7.6 NW 6 6 3 3 - - 0.0
19/05:30am 14.1 10.2 -6.9 22 7.7 WNW 6 7 3 4 - - 0.0

Other formats

Comma delimited format used in spreadsheet applications
http://www.bom.gov.au/fwo/IDN60801/IDN60801.99997.axf

JavaScript Object Notation format (JSON) in row-major order
http://www.bom.gov.au/fwo/IDN60801/IDN60801.99997.json

Data quality

Most of these data are generated automatically and are frequently updated. Quality checks on data are not normally performed. It is possible for incorrect values to appear. Refer to information at About Latest Weather Observations and please check the disclaimer before using these data.